Naytahwaush, Minnesota
Current Conditions -  °F | °C
As of 1:55 AM on Friday 31 Oct 2014 (Local Time) from K3N8 Reporting Station
Clear Clear  
Wind Chill: 13°   Ceiling: Unl
Heat Index: 22°   Visibility: 10mi
Dew Point: 18°   Wind: 8mph
Humidity: 83%   Direction: 360°N
Pressure: 30.53"   Gusts: NA
Location:  47.26°N, 95.63°W
Report Text: K3N8 310655Z AUTO 36007KT 10SM CLR M06/M08 A3053 RMK AO2 T10561080
Loading
Personal Weather Stations






























Interactive Weather Map
Tropical Storm Tracking
New forecast layout! Learn more

10-Day Weather Forecast

Advertisements
Track Severe Weather on mobile